Time;durP1;ratioP1;P1;durP2;ratioP2;P2;SDS_P1;SDS_P2;PMS_P1;PMS_P2;Temp;Humidity;BMP_temperature;BMP_pressure;BME280_temperature;BME280_humidity;BME280_pressure;Samples;Min_cycle;Max_cycle;Signal;HPM_P1;HPM_P2
2022/02/01 00:02:04;;;;;;;2.90;0.70;;;17.90;61.90;;;;;;10606474;27;20057;-47
2022/02/01 00:38:47;;;;;;;1.13;0.63;;;18.00;61.70;;;;;;10585498;27;20058;-46
2022/02/01 00:43:47;;;;;;;1.77;0.60;;;17.90;61.60;;;;;;10584343;27;20027;-46
2022/02/01 00:48:50;;;;;;;2.53;0.70;;;17.90;61.80;;;;;;10585149;27;20534;-48
2022/02/01 00:53:51;;;;;;;1.08;0.43;;;18.00;61.70;;;;;;10577254;27;20059;-47
2022/02/01 00:58:51;;;;;;;2.58;0.80;;;17.90;61.60;;;;;;10588796;27;20019;-46
2022/02/01 01:03:52;;;;;;;1.20;0.63;;;18.00;61.60;;;;;;10594086;27;20088;-45
2022/02/01 01:08:53;;;;;;;3.30;0.82;;;18.10;61.40;;;;;;10580123;28;20103;-48
2022/02/01 01:56:31;;;;;;;1.30;0.40;;;18.00;61.20;;;;;;10589081;27;20035;-47
2022/02/01 02:01:34;;;;;;;1.63;0.60;;;18.00;61.20;;;;;;10614356;27;20113;-48
2022/02/01 02:06:37;;;;;;;1.75;0.50;;;18.00;61.10;;;;;;10610887;27;20027;-48
2022/02/01 02:16:41;;;;;;;1.67;0.55;;;18.00;61.00;;;;;;10614800;27;20073;-47
2022/02/01 02:21:53;;;;;;;1.38;0.50;;;18.00;61.10;;;;;;10601818;27;20531;-50
2022/02/01 02:26:55;;;;;;;1.38;0.50;;;18.00;61.00;;;;;;10595882;27;20130;-49
2022/02/01 02:31:58;;;;;;;1.15;0.40;;;18.00;61.00;;;;;;10592810;27;20031;-47
2022/02/01 02:37:00;;;;;;;0.80;0.30;;;18.00;60.90;;;;;;10586211;28;20032;-47
2022/02/01 02:47:07;;;;;;;1.88;0.50;;;18.00;60.90;;;;;;10625627;27;20077;-46
2022/02/01 02:52:07;;;;;;;1.73;0.60;;;18.00;60.90;;;;;;10614217;27;20403;-47
2022/02/01 02:57:09;;;;;;;1.58;0.50;;;18.00;60.80;;;;;;10585436;27;20110;-48
2022/02/01 03:02:09;;;;;;;1.17;0.30;;;18.00;60.80;;;;;;10588068;27;20422;-47
2022/02/01 03:07:10;;;;;;;1.60;0.40;;;18.00;60.80;;;;;;10626998;27;20110;-47
2022/02/01 03:12:16;;;;;;;1.70;0.50;;;18.00;60.80;;;;;;10622379;27;20026;-47
2022/02/01 03:19:47;;;;;;;1.15;0.50;;;18.00;60.80;;;;;;10580622;27;20028;-47
2022/02/01 03:22:47;;;;;;;1.55;0.40;;;18.00;60.80;;;;;;10583375;27;20614;-47
2022/02/01 03:27:48;;;;;;;0.93;0.35;;;18.00;60.80;;;;;;10616242;27;20043;-45
2022/02/01 03:32:49;;;;;;;0.63;0.30;;;17.90;61.40;;;;;;10591566;27;20023;-47
2022/02/01 03:37:50;;;;;;;0.75;0.30;;;18.00;60.70;;;;;;10593541;27;20437;-49
2022/02/01 03:42:50;;;;;;;1.20;0.38;;;18.00;60.70;;;;;;10625397;27;20019;-47
2022/02/01 03:47:51;;;;;;;1.48;0.65;;;18.00;60.70;;;;;;10592872;27;20102;-46
2022/02/01 03:52:53;;;;;;;0.75;0.40;;;18.00;60.60;;;;;;10597048;27;20030;-45
2022/02/01 03:57:53;;;;;;;1.67;0.35;;;18.00;60.60;;;;;;10592244;27;20031;-46
2022/02/01 04:02:54;;;;;;;0.73;0.38;;;18.00;60.60;;;;;;10585388;27;20035;-45
2022/02/01 04:07:55;;;;;;;0.73;0.30;;;18.00;60.60;;;;;;10600504;27;20042;-45
2022/02/01 04:12:57;;;;;;;0.77;0.30;;;18.00;60.50;;;;;;10592424;27;20114;-46
2022/02/01 04:17:58;;;;;;;1.70;0.50;;;18.00;60.60;;;;;;10576210;27;20098;-47
2022/02/01 04:22:59;;;;;;;0.63;0.22;;;18.00;60.50;;;;;;10606266;27;20027;-46
2022/02/01 04:27:59;;;;;;;2.50;0.60;;;18.00;60.60;;;;;;10578910;27;20105;-46
2022/02/01 04:33:00;;;;;;;1.02;0.47;;;18.00;60.50;;;;;;10582400;27;20360;-46
2022/02/01 04:38:01;;;;;;;0.70;0.20;;;18.00;60.50;;;;;;10573653;27;20019;-47
2022/02/01 04:43:05;;;;;;;0.63;0.40;;;18.00;60.40;;;;;;10591528;27;20027;-45
2022/02/01 04:48:06;;;;;;;2.58;0.47;;;18.00;60.50;;;;;;10590334;27;20015;-46
2022/02/01 04:53:07;;;;;;;0.80;0.40;;;18.00;60.40;;;;;;10587650;27;20031;-47
2022/02/01 04:58:08;;;;;;;1.55;0.55;;;18.00;60.40;;;;;;10588239;27;20027;-46
2022/02/01 05:03:08;;;;;;;1.80;0.45;;;18.00;60.40;;;;;;10590829;27;20045;-45
2022/02/01 05:08:11;;;;;;;0.55;0.25;;;18.00;60.40;;;;;;10579571;27;20345;-51
2022/02/01 05:18:37;;;;;;;0.98;0.30;;;18.00;60.40;;;;;;10596845;28;20380;-46
2022/02/01 05:23:38;;;;;;;0.70;0.30;;;18.00;60.30;;;;;;10575206;28;20040;-50
2022/02/01 05:28:41;;;;;;;1.55;0.40;;;18.00;60.40;;;;;;10593299;28;20024;-48
2022/02/01 05:33:42;;;;;;;0.63;0.30;;;18.00;60.20;;;;;;10584345;28;20469;-48
2022/02/01 05:38:48;;;;;;;0.68;0.30;;;18.00;60.20;;;;;;10597771;28;20043;-46
2022/02/01 05:43:48;;;;;;;1.60;0.30;;;18.00;60.20;;;;;;10604502;28;20371;-48
2022/02/01 05:48:49;;;;;;;1.45;0.40;;;18.00;60.20;;;;;;10558168;28;20110;-50
2022/02/01 05:53:50;;;;;;;3.03;0.50;;;18.00;60.20;;;;;;10600079;28;20031;-47
2022/02/01 05:58:51;;;;;;;3.90;0.75;;;18.00;60.00;;;;;;10610872;28;20031;-46
2022/02/01 06:03:51;;;;;;;3.65;0.52;;;18.00;60.50;;;;;;10591770;28;20019;-47
2022/02/01 06:08:53;;;;;;;4.07;0.50;;;18.00;61.70;;;;;;10589355;28;20054;-47
2022/02/01 06:13:54;;;;;;;2.80;0.60;;;18.10;61.90;;;;;;10580629;28;20035;-46
2022/02/01 06:18:56;;;;;;;5.57;0.70;;;18.10;61.70;;;;;;10594175;28;20418;-46
2022/02/01 06:23:56;;;;;;;4.78;0.95;;;18.00;62.20;;;;;;10603351;27;20093;-47
2022/02/01 06:28:57;;;;;;;3.22;0.70;;;18.00;62.20;;;;;;10586843;27;20478;-56
2022/02/01 06:33:58;;;;;;;5.63;1.10;;;18.00;62.30;;;;;;10601785;27;20532;-49
2022/02/01 06:38:58;;;;;;;7.18;1.20;;;17.90;61.90;;;;;;10595342;27;20035;-46
2022/02/01 06:44:01;;;;;;;5.32;1.35;;;18.00;61.70;;;;;;10604767;27;20115;-46
2022/02/01 06:49:05;;;;;;;6.72;1.35;;;17.90;61.70;;;;;;10592471;27;20403;-46
2022/02/01 06:54:06;;;;;;;11.25;1.27;;;18.00;61.40;;;;;;10600644;27;20118;-46
2022/02/01 06:59:07;;;;;;;8.43;1.70;;;17.90;61.40;;;;;;10605303;27;20168;-46
2022/02/01 07:04:08;;;;;;;13.52;1.73;;;17.90;61.20;;;;;;10607855;27;20114;-47
2022/02/01 07:09:09;;;;;;;11.23;1.85;;;17.90;61.20;;;;;;10600319;27;20081;-45
2022/02/01 07:14:09;;;;;;;7.07;1.55;;;17.90;61.10;;;;;;10606185;27;20031;-46
2022/02/01 07:19:10;;;;;;;9.25;1.27;;;17.80;61.20;;;;;;10589047;27;20102;-46
2022/02/01 07:24:16;;;;;;;10.65;1.67;;;17.80;61.50;;;;;;10625767;27;20127;-46
2022/02/01 07:29:16;;;;;;;7.47;2.25;;;17.90;61.10;;;;;;10620751;27;20028;-47
2022/02/01 07:34:17;;;;;;;5.72;1.23;;;17.80;61.20;;;;;;10603783;27;20053;-52
2022/02/01 07:39:18;;;;;;;6.93;1.10;;;17.80;61.50;;;;;;10583634;27;20091;-46
2022/02/01 07:44:18;;;;;;;8.88;1.63;;;17.90;61.20;;;;;;10622731;27;20425;-48
2022/02/01 07:49:21;;;;;;;4.10;1.00;;;17.90;61.00;;;;;;10618678;27;20094;-48
2022/02/01 07:54:22;;;;;;;4.28;1.35;;;17.90;60.80;;;;;;10585355;27;20445;-46
2022/02/01 07:59:23;;;;;;;7.30;1.63;;;17.90;60.70;;;;;;10596875;27;20027;-52
2022/02/01 08:04:24;;;;;;;5.57;1.25;;;17.80;60.70;;;;;;10581481;27;20024;-49
2022/02/01 08:09:31;;;;;;;5.10;1.92;;;17.80;60.70;;;;;;10602649;27;20097;-49
2022/02/01 08:24:52;;;;;;;4.97;1.00;;;17.80;61.40;;;;;;10600436;27;20142;-50
2022/02/01 08:29:52;;;;;;;5.07;1.35;;;17.90;61.30;;;;;;10584256;27;20053;-49
2022/02/01 08:34:53;;;;;;;3.80;0.85;;;17.80;61.30;;;;;;10598079;27;20066;-51
2022/02/01 08:39:54;;;;;;;4.47;1.38;;;17.80;61.40;;;;;;10593593;27;20114;-52
2022/02/01 08:44:54;;;;;;;4.43;1.05;;;17.80;61.50;;;;;;10596750;27;20108;-48
2022/02/01 08:49:55;;;;;;;2.75;0.98;;;17.70;61.40;;;;;;10589053;27;20019;-49
2022/02/01 08:55:00;;;;;;;6.88;1.38;;;17.70;61.60;;;;;;10563534;27;20476;-47
2022/02/01 09:00:06;;;;;;;5.00;1.00;;;17.70;61.60;;;;;;10596105;27;20464;-48
2022/02/01 09:05:08;;;;;;;5.65;0.88;;;17.80;61.50;;;;;;10616860;27;20031;-47
2022/02/01 09:10:10;;;;;;;3.42;0.80;;;17.70;61.60;;;;;;10611070;27;20042;-50
2022/02/01 09:15:11;;;;;;;3.42;0.95;;;17.80;61.50;;;;;;10597491;27;20115;-51
2022/02/01 09:20:12;;;;;;;3.22;1.30;;;17.80;61.30;;;;;;10576424;28;20106;-51
2022/02/01 09:25:15;;;;;;;2.83;0.88;;;17.80;61.40;;;;;;10587398;28;20039;-51
2022/02/01 09:30:22;;;;;;;3.42;1.38;;;17.80;61.40;;;;;;10566811;28;20039;-51
2022/02/01 09:35:23;;;;;;;2.65;0.68;;;17.70;61.80;;;;;;10593814;28;20110;-48
2022/02/01 09:40:24;;;;;;;3.00;1.00;;;17.70;61.70;;;;;;10574193;28;20028;-51
2022/02/01 09:45:27;;;;;;;2.35;0.90;;;17.70;61.50;;;;;;10611498;28;20119;-47
2022/02/01 09:50:28;;;;;;;4.03;0.80;;;17.80;61.50;;;;;;10576483;28;20083;-47
2022/02/01 09:55:29;;;;;;;4.05;0.80;;;17.70;61.60;;;;;;10580810;27;20083;-52
2022/02/01 10:00:44;;;;;;;2.00;0.70;;;17.70;61.50;;;;;;10601639;27;20459;-48
2022/02/01 10:06:10;;;;;;;1.88;0.93;;;17.70;62.10;;;;;;10579514;27;20054;-50
2022/02/01 10:11:11;;;;;;;2.53;0.63;;;17.70;61.30;;;;;;10586546;27;20027;-51
2022/02/01 10:16:28;;;;;;;2.55;0.80;;;17.70;61.50;;;;;;10598213;27;20019;-46
2022/02/01 10:21:28;;;;;;;4.00;0.88;;;17.70;61.60;;;;;;10569412;28;20032;-49
2022/02/01 10:26:29;;;;;;;2.65;0.80;;;17.70;61.20;;;;;;10572435;27;20035;-48
2022/02/01 10:31:41;;;;;;;3.47;1.00;;;17.70;61.70;;;;;;10615960;27;20066;-48
2022/02/01 10:36:42;;;;;;;3.75;0.57;;;17.60;61.80;;;;;;10580145;27;20027;-47
2022/02/01 10:42:13;;;;;;;2.05;0.50;;;17.60;61.90;;;;;;10581714;27;20102;-48
2022/02/01 10:47:30;;;;;;;2.10;0.90;;;17.60;61.70;;;;;;10596029;27;20058;-49
2022/02/01 10:52:39;;;;;;;2.33;0.85;;;17.70;61.50;;;;;;10592707;27;20028;-47
2022/02/01 10:57:41;;;;;;;4.25;0.90;;;17.70;61.20;;;;;;10598129;27;20031;-51
2022/02/01 11:02:44;;;;;;;1.77;0.60;;;17.70;61.10;;;;;;10609571;27;20027;-49
2022/02/01 11:07:50;;;;;;;3.67;0.73;;;17.70;61.10;;;;;;10626008;27;20383;-49
2022/02/01 11:12:51;;;;;;;3.13;0.80;;;17.70;61.10;;;;;;10584785;27;20022;-50
2022/02/01 11:17:52;;;;;;;2.42;0.90;;;17.70;61.00;;;;;;10578083;27;20046;-47
2022/02/01 11:23:12;;;;;;;3.55;0.90;;;17.70;61.10;;;;;;10585187;27;20027;-48
2022/02/01 11:33:53;;;;;;;3.37;0.80;;;17.80;61.20;;;;;;10572081;27;20092;-50
2022/02/01 11:38:58;;;;;;;1.75;0.65;;;17.80;61.20;;;;;;10612176;27;20356;-48
2022/02/01 11:44:28;;;;;;;4.32;0.70;;;17.80;61.20;;;;;;10593657;27;20435;-47
2022/02/01 11:49:30;;;;;;;2.85;0.85;;;17.70;61.10;;;;;;10582901;28;20028;-50
2022/02/01 11:54:33;;;;;;;3.58;1.35;;;17.70;61.00;;;;;;10584908;27;20055;-51
2022/02/01 11:59:34;;;;;;;2.70;0.60;;;17.70;61.00;;;;;;10562654;27;20032;-48
2022/02/01 12:04:42;;;;;;;3.50;0.85;;;17.70;61.00;;;;;;10580708;28;20368;-48
2022/02/01 12:09:43;;;;;;;1.98;0.52;;;17.80;60.90;;;;;;10581684;27;20604;-47
2022/02/01 12:14:44;;;;;;;1.00;0.50;;;17.80;60.90;;;;;;10594666;27;20031;-46
2022/02/01 12:19:55;;;;;;;1.98;0.73;;;17.70;60.90;;;;;;10590267;27;20035;-48
2022/02/01 12:25:08;;;;;;;4.95;1.02;;;17.80;60.80;;;;;;10577916;27;20052;-49
2022/02/01 12:30:10;;;;;;;1.02;0.38;;;17.70;60.80;;;;;;10581740;27;20028;-49
2022/02/01 12:35:11;;;;;;;2.05;0.57;;;17.80;60.80;;;;;;10586889;27;20027;-48
2022/02/01 12:40:12;;;;;;;1.60;0.50;;;17.70;60.70;;;;;;10603068;27;20056;-47
2022/02/01 12:50:32;;;;;;;0.80;0.50;;;17.70;60.90;;;;;;10581443;27;20031;-48
2022/02/01 12:55:33;;;;;;;1.75;0.40;;;17.70;60.80;;;;;;10593985;27;20035;-47
2022/02/01 13:00:34;;;;;;;1.38;0.50;;;17.70;60.70;;;;;;10580727;28;20031;-49
2022/02/01 13:05:36;;;;;;;2.50;0.77;;;17.70;60.60;;;;;;10575867;27;20031;-51
2022/02/01 13:21:08;;;;;;;2.70;0.43;;;17.70;61.10;;;;;;10582206;28;20039;-53
2022/02/01 13:26:26;;;;;;;2.17;0.70;;;17.80;61.10;;;;;;10579753;28;20035;-48
2022/02/01 13:31:34;;;;;;;3.05;0.68;;;17.70;61.20;;;;;;10600909;27;20362;-50
2022/02/01 13:36:46;;;;;;;4.93;0.95;;;17.70;61.40;;;;;;10593210;27;20157;-50
2022/02/01 13:41:56;;;;;;;6.00;0.88;;;17.70;61.40;;;;;;10586925;27;20047;-54
2022/02/01 13:47:17;;;;;;;3.97;0.47;;;17.70;61.40;;;;;;10598270;27;20051;-54
2022/02/01 13:52:20;;;;;;;1.67;0.55;;;17.70;61.40;;;;;;10610066;27;20444;-53
2022/02/01 13:57:28;;;;;;;2.88;0.57;;;17.70;61.20;;;;;;10577335;27;20043;-54
2022/02/01 14:02:34;;;;;;;2.90;0.68;;;17.80;60.90;;;;;;10594870;27;20076;-47
2022/02/01 14:29:00;;;;;;;9.18;1.60;;;17.80;62.00;;;;;;10596685;27;20039;-51
2022/02/01 14:34:14;;;;;;;7.80;0.90;;;17.90;62.00;;;;;;10586694;27;20027;-51
2022/02/01 14:44:41;;;;;;;6.18;0.75;;;17.80;61.70;;;;;;10580374;27;20043;-53
2022/02/01 14:49:43;;;;;;;9.93;1.17;;;17.80;61.70;;;;;;10599586;27;20039;-54
2022/02/01 14:54:53;;;;;;;3.88;1.10;;;17.70;61.80;;;;;;10584416;27;20031;-53
2022/02/01 15:05:31;;;;;;;6.80;1.05;;;17.80;61.60;;;;;;10576060;27;20043;-52
2022/02/01 15:16:04;;;;;;;3.15;0.70;;;17.80;61.60;;;;;;10582431;27;20039;-53
2022/02/01 15:21:05;;;;;;;4.80;0.95;;;17.90;61.60;;;;;;10580232;27;20419;-52
2022/02/01 15:26:06;;;;;;;12.90;1.27;;;17.80;61.60;;;;;;10578474;27;20043;-53
2022/02/01 15:31:07;;;;;;;8.00;1.42;;;17.80;62.00;;;;;;10566669;28;20157;-53
2022/02/01 15:36:09;;;;;;;11.80;2.00;;;17.80;62.00;;;;;;10592160;27;20035;-54
2022/02/01 15:54:22;;;;;;;5.00;1.42;;;17.70;62.00;;;;;;10581931;27;20031;-55
2022/02/01 15:57:32;;;;;;;5.85;1.48;;;17.80;61.00;;;;;;10572227;27;20051;-54
2022/02/01 16:02:36;;;;;;;10.80;1.80;;;17.80;60.50;;;;;;10600446;27;20107;-53
2022/02/01 16:07:40;;;;;;;10.68;2.05;;;17.90;60.20;;;;;;10598547;27;20026;-55
2022/02/01 16:12:40;;;;;;;6.35;1.60;;;17.80;59.90;;;;;;10571916;27;20032;-51
2022/02/01 16:17:41;;;;;;;6.72;1.30;;;17.90;59.40;;;;;;10609830;27;20031;-52
2022/02/01 16:22:44;;;;;;;4.88;1.10;;;18.00;59.10;;;;;;10599807;27;20106;-53
2022/02/01 16:27:45;;;;;;;5.88;1.60;;;18.00;59.10;;;;;;10576055;27;20035;-51
2022/02/01 16:32:46;;;;;;;4.82;1.50;;;18.00;59.30;;;;;;10570284;27;20391;-51
2022/02/01 16:37:47;;;;;;;5.38;1.65;;;17.90;59.50;;;;;;10573487;27;20034;-51
2022/02/01 16:42:47;;;;;;;5.07;1.50;;;17.90;59.40;;;;;;10602357;27;20380;-52
2022/02/01 16:47:49;;;;;;;6.40;1.25;;;17.90;59.50;;;;;;10608410;27;20115;-49
2022/02/01 16:52:55;;;;;;;7.18;1.27;;;17.80;59.50;;;;;;10586160;27;20475;-53
2022/02/01 16:57:58;;;;;;;10.02;1.77;;;17.90;59.70;;;;;;10601865;27;20031;-56
2022/02/01 17:03:03;;;;;;;9.32;1.60;;;18.20;59.80;;;;;;10600372;27;20100;-54
2022/02/01 17:08:04;;;;;;;10.65;2.03;;;18.20;59.90;;;;;;10605752;27;20024;-54
2022/02/01 17:13:16;;;;;;;8.45;2.72;;;18.40;60.20;;;;;;10587596;28;20027;-55
2022/02/01 17:23:17;;;;;;;12.10;1.88;;;18.20;63.60;;;;;;10570647;28;20040;-52
2022/02/01 17:28:18;;;;;;;11.63;2.63;;;18.10;64.00;;;;;;10575525;28;20032;-52
2022/02/01 17:33:19;;;;;;;13.15;2.22;;;18.10;63.30;;;;;;10595898;28;20035;-50
2022/02/01 17:38:20;;;;;;;8.45;2.53;;;18.00;63.50;;;;;;10615052;28;20031;-53
2022/02/01 17:43:21;;;;;;;10.77;2.53;;;18.00;64.80;;;;;;10585171;28;20123;-51
2022/02/01 17:48:22;;;;;;;7.78;1.85;;;17.90;63.50;;;;;;10574365;28;20034;-53
2022/02/01 17:53:27;;;;;;;10.75;2.03;;;17.80;63.70;;;;;;10580443;28;20467;-53
2022/02/01 17:58:28;;;;;;;10.52;2.45;;;17.70;63.60;;;;;;10579313;28;20035;-53
2022/02/01 18:03:29;;;;;;;10.50;1.75;;;17.70;63.80;;;;;;10594053;28;20122;-53
2022/02/01 18:08:30;;;;;;;11.27;2.38;;;17.60;63.80;;;;;;10586030;28;20114;-49
2022/02/01 18:18:40;;;;;;;7.18;1.95;;;17.70;64.50;;;;;;10610831;27;20043;-50
2022/02/01 18:23:43;;;;;;;7.55;1.65;;;17.60;64.30;;;;;;10575696;27;20553;-52
2022/02/01 18:28:43;;;;;;;13.10;2.20;;;17.60;63.70;;;;;;10586490;27;20123;-51
2022/02/01 18:33:44;;;;;;;7.85;1.70;;;17.70;64.30;;;;;;10599235;27;20031;-55
2022/02/01 18:38:48;;;;;;;11.15;1.95;;;17.70;64.40;;;;;;10583868;27;20031;-48
2022/02/01 18:43:52;;;;;;;7.18;2.00;;;17.80;64.60;;;;;;10582761;27;20023;-54
2022/02/01 18:48:57;;;;;;;9.95;2.22;;;17.70;64.70;;;;;;10580812;27;20083;-49
2022/02/01 18:59:25;;;;;;;6.75;1.77;;;17.70;64.90;;;;;;10600562;27;20463;-51
2022/02/01 19:14:55;;;;;;;8.48;2.33;;;17.70;64.60;;;;;;10595336;27;20039;-49
2022/02/01 19:19:56;;;;;;;5.85;1.95;;;17.70;64.50;;;;;;10598948;27;20395;-49
2022/02/01 19:24:58;;;;;;;5.72;1.77;;;17.60;64.60;;;;;;10610143;27;20043;-48
2022/02/01 19:29:59;;;;;;;5.47;1.90;;;17.70;64.60;;;;;;10566025;28;20019;-48
2022/02/01 19:35:01;;;;;;;5.85;1.70;;;17.70;64.50;;;;;;10596796;27;20062;-50
2022/02/01 19:40:04;;;;;;;5.63;1.63;;;17.70;64.60;;;;;;10599114;27;20031;-48
2022/02/01 19:45:13;;;;;;;5.63;1.83;;;17.70;64.60;;;;;;10611382;27;20041;-47
2022/02/01 19:50:15;;;;;;;5.47;2.00;;;17.70;64.50;;;;;;10574852;27;20117;-48
2022/02/01 19:55:15;;;;;;;4.80;1.33;;;17.70;64.50;;;;;;10583136;27;20039;-48
2022/02/01 20:00:17;;;;;;;4.90;1.17;;;17.70;64.50;;;;;;10580574;27;20031;-48
2022/02/01 20:05:17;;;;;;;2.75;1.08;;;17.70;64.40;;;;;;10598208;27;20031;-47
2022/02/01 20:10:22;;;;;;;7.53;1.60;;;17.70;64.60;;;;;;10582567;27;20027;-48
2022/02/01 20:15:23;;;;;;;3.80;1.42;;;17.70;64.40;;;;;;10591423;27;20038;-51
2022/02/01 20:20:27;;;;;;;5.18;1.20;;;17.70;64.30;;;;;;10592052;27;20031;-53
2022/02/01 20:25:29;;;;;;;16.83;2.05;;;17.80;64.30;;;;;;10540436;27;20533;-50
2022/02/01 20:30:31;;;;;;;2.83;1.63;;;17.70;64.30;;;;;;10587686;27;20077;-50
2022/02/01 20:35:33;;;;;;;5.47;1.23;;;17.70;64.40;;;;;;10601302;27;20043;-51
2022/02/01 20:40:42;;;;;;;3.95;1.52;;;17.70;64.40;;;;;;10580953;27;20031;-47
2022/02/01 20:45:43;;;;;;;;;;;17.70;64.40;;;;;;10578186;27;20045;-51
2022/02/01 20:50:45;;;;;;;4.47;1.30;;;17.70;64.20;;;;;;10577849;27;19911;-51
2022/02/01 20:55:47;;;;;;;4.43;1.23;;;17.70;64.20;;;;;;10595014;27;20022;-50
2022/02/01 21:00:53;;;;;;;5.25;1.30;;;17.70;64.10;;;;;;10591022;27;20069;-49
2022/02/01 21:05:54;;;;;;;2.67;1.20;;;17.70;64.00;;;;;;10604396;27;20027;-48
2022/02/01 21:10:55;;;;;;;4.72;1.15;;;17.70;63.90;;;;;;10590685;27;20171;-48
2022/02/01 21:15:56;;;;;;;3.65;1.15;;;17.70;63.80;;;;;;10621890;27;20033;-48
2022/02/01 21:20:57;;;;;;;4.53;1.33;;;17.70;63.70;;;;;;10582076;27;20059;-48
2022/02/01 21:25:58;;;;;;;3.53;1.33;;;17.80;63.70;;;;;;10575381;28;20047;-51
2022/02/01 21:31:00;;;;;;;5.10;1.35;;;17.70;63.50;;;;;;10597209;28;20027;-48
2022/02/01 21:36:01;;;;;;;4.60;1.30;;;17.70;63.60;;;;;;10617490;28;20027;-48
2022/02/01 21:41:01;;;;;;;2.75;0.70;;;17.70;63.40;;;;;;10607969;28;20038;-47
2022/02/01 21:46:02;;;;;;;3.10;1.08;;;17.70;63.40;;;;;;10607988;28;20106;-47
2022/02/01 21:51:03;;;;;;;4.07;0.90;;;17.70;63.20;;;;;;10579465;28;20027;-51
2022/02/01 21:56:04;;;;;;;3.05;0.95;;;17.80;63.20;;;;;;10586562;27;20092;-47
2022/02/01 22:01:05;;;;;;;3.95;1.30;;;17.80;63.10;;;;;;10598505;27;20039;-51
2022/02/01 22:06:07;;;;;;;5.68;1.15;;;17.80;63.00;;;;;;10600048;27;20039;-50
2022/02/01 22:11:08;;;;;;;2.72;1.10;;;17.80;63.00;;;;;;10594853;27;20016;-50
2022/02/01 22:16:08;;;;;;;2.28;0.93;;;17.80;63.00;;;;;;10582054;27;20035;-51
2022/02/01 22:21:09;;;;;;;3.50;0.90;;;17.70;62.90;;;;;;10568261;28;20548;-48
2022/02/01 22:26:10;;;;;;;2.67;1.30;;;17.70;62.90;;;;;;10592272;27;20046;-48
2022/02/01 22:31:11;;;;;;;2.92;1.05;;;17.80;62.90;;;;;;10596566;27;20027;-53
2022/02/01 22:36:14;;;;;;;2.95;0.95;;;17.70;62.80;;;;;;10591925;27;20176;-49
2022/02/01 22:41:15;;;;;;;3.17;0.80;;;17.80;62.80;;;;;;10581841;27;20028;-51
2022/02/01 22:46:18;;;;;;;2.40;0.90;;;17.80;62.80;;;;;;10556957;27;20446;-49
2022/02/01 22:51:23;;;;;;;2.67;1.05;;;17.70;62.70;;;;;;10585679;28;20039;-48
2022/02/01 22:56:24;;;;;;;3.03;0.82;;;17.80;62.70;;;;;;10580877;27;20028;-48
2022/02/01 23:01:24;;;;;;;4.20;1.15;;;17.70;62.50;;;;;;10593964;27;20035;-50
2022/02/01 23:06:25;;;;;;;3.92;0.90;;;17.70;62.50;;;;;;10584722;27;20032;-49
2022/02/01 23:22:13;;;;;;;4.65;1.00;;;17.80;62.40;;;;;;10581152;27;20075;-47
2022/02/01 23:27:13;;;;;;;2.72;1.08;;;17.80;62.30;;;;;;10596871;27;20476;-51
2022/02/01 23:32:24;;;;;;;2.20;0.90;;;17.90;62.20;;;;;;10580993;27;20034;-48
2022/02/01 23:42:54;;;;;;;7.13;1.13;;;17.80;62.10;;;;;;10597186;27;20032;-53
2022/02/01 23:47:58;;;;;;;2.13;0.88;;;17.80;62.10;;;;;;10608818;27;20040;-50
2022/02/01 23:53:01;;;;;;;5.50;1.25;;;17.80;62.20;;;;;;10597883;27;20117;-51
